Time;durP1;ratioP1;P1;durP2;ratioP2;P2;SDS_P1;SDS_P2;PMS_P1;PMS_P2;Temp;Humidity;BMP_temperature;BMP_pressure;BME280_temperature;BME280_humidity;BME280_pressure;Samples;Min_cycle;Max_cycle;Signal;HPM_P1;HPM_P2
2023/12/03 00:00:45;;;;;;;14.03;11.47;;;;;;;;;;5022685;28;20199;-79
2023/12/03 00:03:11;;;;;;;15.07;10.27;;;;;;;;;;5023635;28;20171;-80
2023/12/03 00:05:36;;;;;;;15.97;10.87;;;;;;;;;;5020007;28;20184;-79
2023/12/03 00:08:02;;;;;;;12.73;9.53;;;;;;;;;;5020214;28;20198;-79
2023/12/03 00:10:27;;;;;;;14.53;10.50;;;;;;;;;;5025172;28;20247;-80
2023/12/03 00:12:53;;;;;;;12.50;8.60;;;;;;;;;;5019924;28;20179;-79
2023/12/03 00:15:18;;;;;;;17.50;11.47;;;;;;;;;;5021653;28;20182;-80
2023/12/03 00:17:43;;;;;;;14.80;10.37;;;;;;;;;;5021249;28;20257;-80
2023/12/03 00:20:08;;;;;;;14.23;9.57;;;;;;;;;;5019706;28;20198;-80
2023/12/03 00:22:34;;;;;;;15.93;10.00;;;;;;;;;;5017046;28;20209;-80
2023/12/03 00:24:59;;;;;;;12.93;8.40;;;;;;;;;;5018495;28;20202;-80
2023/12/03 00:27:24;;;;;;;12.87;9.83;;;;;;;;;;5025088;28;20178;-80
2023/12/03 00:29:49;;;;;;;13.53;8.57;;;;;;;;;;5024593;28;20186;-80
2023/12/03 00:32:15;;;;;;;15.27;9.63;;;;;;;;;;5021713;28;20205;-80
2023/12/03 00:34:40;;;;;;;11.70;8.87;;;;;;;;;;5025996;28;20183;-80
2023/12/03 00:37:06;;;;;;;15.43;9.87;;;;;;;;;;5023334;28;20179;-81
2023/12/03 00:39:31;;;;;;;14.90;9.67;;;;;;;;;;5027830;28;20174;-80
2023/12/03 00:41:56;;;;;;;16.03;10.50;;;;;;;;;;5013935;28;20195;-80
2023/12/03 00:44:21;;;;;;;18.00;12.03;;;;;;;;;;5014343;28;20233;-80
2023/12/03 00:46:46;;;;;;;14.60;9.33;;;;;;;;;;5022889;28;20202;-80
2023/12/03 00:49:12;;;;;;;16.77;10.57;;;;;;;;;;5027778;28;20224;-80
2023/12/03 00:51:37;;;;;;;15.17;9.70;;;;;;;;;;5018052;28;20186;-80
2023/12/03 00:54:02;;;;;;;13.43;9.33;;;;;;;;;;5020204;28;20179;-81
2023/12/03 00:56:28;;;;;;;13.23;8.30;;;;;;;;;;5025291;28;20234;-81
2023/12/03 00:58:53;;;;;;;12.33;8.70;;;;;;;;;;5016672;28;20202;-81
2023/12/03 01:01:21;;;;;;;13.90;9.43;;;;;;;;;;5019252;28;20222;-81
2023/12/03 01:03:47;;;;;;;12.47;9.03;;;;;;;;;;5018520;28;20264;-81
2023/12/03 01:06:12;;;;;;;10.97;7.97;;;;;;;;;;5017186;28;20194;-81
2023/12/03 01:08:37;;;;;;;12.97;8.77;;;;;;;;;;5015837;28;20183;-81
2023/12/03 01:11:04;;;;;;;13.97;9.40;;;;;;;;;;5018790;28;20269;-81
2023/12/03 01:13:29;;;;;;;10.63;7.90;;;;;;;;;;5019374;28;20179;-81
2023/12/03 01:15:54;;;;;;;11.90;7.97;;;;;;;;;;5014829;28;20182;-81
2023/12/03 01:18:19;;;;;;;15.30;10.00;;;;;;;;;;5014376;28;20180;-81
2023/12/03 01:20:45;;;;;;;13.03;10.03;;;;;;;;;;5021195;28;20210;-81
2023/12/03 01:23:10;;;;;;;14.90;10.33;;;;;;;;;;5023175;28;20223;-81
2023/12/03 01:25:35;;;;;;;16.10;10.73;;;;;;;;;;5020592;28;20188;-81
2023/12/03 01:28:00;;;;;;;10.67;7.70;;;;;;;;;;5024785;28;20243;-81
2023/12/03 01:30:25;;;;;;;10.17;7.60;;;;;;;;;;5020092;28;20179;-81
2023/12/03 01:32:51;;;;;;;13.47;9.43;;;;;;;;;;5019501;28;20206;-81
2023/12/03 01:35:16;;;;;;;11.80;8.53;;;;;;;;;;5015068;28;20213;-82
2023/12/03 01:37:41;;;;;;;11.17;8.43;;;;;;;;;;5024700;28;20187;-81
2023/12/03 01:40:07;;;;;;;12.90;8.97;;;;;;;;;;5016142;28;20198;-81
2023/12/03 01:42:33;;;;;;;14.40;9.40;;;;;;;;;;5018513;28;20334;-81
2023/12/03 01:44:58;;;;;;;16.33;9.67;;;;;;;;;;5018996;28;20508;-81
2023/12/03 01:47:23;;;;;;;13.53;9.70;;;;;;;;;;5017439;28;20229;-82
2023/12/03 01:49:49;;;;;;;13.30;9.23;;;;;;;;;;5021987;28;20234;-81
2023/12/03 01:52:14;;;;;;;14.50;9.50;;;;;;;;;;5018263;28;20190;-82
2023/12/03 01:54:42;;;;;;;12.07;8.53;;;;;;;;;;5022733;28;20183;-81
2023/12/03 01:57:07;;;;;;;13.57;8.87;;;;;;;;;;5022596;28;21081;-82
2023/12/03 01:59:33;;;;;;;10.90;8.03;;;;;;;;;;5017967;28;20187;-82
2023/12/03 02:01:58;;;;;;;13.87;9.07;;;;;;;;;;5024591;28;20187;-82
2023/12/03 02:04:23;;;;;;;14.43;9.77;;;;;;;;;;5027927;28;20181;-82
2023/12/03 02:06:48;;;;;;;10.63;8.17;;;;;;;;;;5019792;28;20187;-82
2023/12/03 02:09:16;;;;;;;13.77;9.27;;;;;;;;;;5022938;28;20176;-82
2023/12/03 02:11:41;;;;;;;11.23;7.83;;;;;;;;;;5023213;28;20232;-82
2023/12/03 02:14:07;;;;;;;10.90;7.93;;;;;;;;;;5019341;28;20183;-82
2023/12/03 02:16:35;;;;;;;12.23;8.93;;;;;;;;;;5013905;28;20187;-82
2023/12/03 02:19:00;;;;;;;13.70;8.80;;;;;;;;;;5025067;28;20293;-82
2023/12/03 02:21:25;;;;;;;12.77;8.30;;;;;;;;;;5019455;28;20262;-82
2023/12/03 02:23:50;;;;;;;11.57;7.67;;;;;;;;;;5018235;28;20174;-82
2023/12/03 02:26:16;;;;;;;12.87;8.63;;;;;;;;;;5015359;28;20204;-82
2023/12/03 02:28:41;;;;;;;13.50;9.40;;;;;;;;;;5022274;28;20189;-82
2023/12/03 02:31:09;;;;;;;9.70;7.20;;;;;;;;;;5023230;28;20175;-82
2023/12/03 02:33:34;;;;;;;12.13;8.90;;;;;;;;;;5017258;28;20194;-82
2023/12/03 02:36:00;;;;;;;15.07;8.57;;;;;;;;;;5023482;28;20227;-82
2023/12/03 02:38:25;;;;;;;11.33;7.40;;;;;;;;;;5025151;28;20182;-82
2023/12/03 02:40:50;;;;;;;13.63;9.43;;;;;;;;;;5020910;28;20207;-82
2023/12/03 02:43:15;;;;;;;13.43;9.23;;;;;;;;;;5016693;28;20265;-82
2023/12/03 02:45:41;;;;;;;13.57;9.37;;;;;;;;;;5024769;28;20210;-82
2023/12/03 02:48:06;;;;;;;15.20;9.53;;;;;;;;;;5019597;28;20175;-82
2023/12/03 02:50:31;;;;;;;14.20;9.10;;;;;;;;;;5023590;28;20192;-82
2023/12/03 02:52:56;;;;;;;11.80;8.43;;;;;;;;;;5016935;28;20184;-82
2023/12/03 02:55:22;;;;;;;11.80;9.00;;;;;;;;;;5020353;28;20190;-82
2023/12/03 02:57:47;;;;;;;12.00;7.83;;;;;;;;;;5015748;28;20258;-82
2023/12/03 03:00:12;;;;;;;12.10;8.37;;;;;;;;;;5017132;28;20196;-82
2023/12/03 03:02:37;;;;;;;12.83;8.60;;;;;;;;;;5025975;28;20190;-82
2023/12/03 03:05:04;;;;;;;12.37;8.23;;;;;;;;;;5025521;28;20182;-82
2023/12/03 03:07:29;;;;;;;12.63;8.63;;;;;;;;;;5023803;28;20224;-82
2023/12/03 03:09:55;;;;;;;12.07;8.20;;;;;;;;;;5019298;28;20386;-82
2023/12/03 03:12:20;;;;;;;12.93;9.37;;;;;;;;;;5012451;28;20273;-82
2023/12/03 03:14:45;;;;;;;12.70;9.23;;;;;;;;;;5017395;28;20189;-82
2023/12/03 03:17:10;;;;;;;12.77;8.63;;;;;;;;;;5015111;28;20271;-82
2023/12/03 03:19:35;;;;;;;12.00;8.63;;;;;;;;;;5014690;28;20222;-82
2023/12/03 03:22:01;;;;;;;12.57;8.37;;;;;;;;;;5020398;28;20176;-82
2023/12/03 03:24:26;;;;;;;12.97;8.97;;;;;;;;;;5016513;28;20176;-82
2023/12/03 03:26:51;;;;;;;11.00;7.50;;;;;;;;;;5017728;28;20190;-82
2023/12/03 03:29:17;;;;;;;12.87;8.37;;;;;;;;;;5007196;28;20188;-82
2023/12/03 03:31:42;;;;;;;12.33;8.30;;;;;;;;;;5015643;28;20213;-82
2023/12/03 03:34:07;;;;;;;12.53;8.30;;;;;;;;;;5019076;28;20198;-82
2023/12/03 03:36:32;;;;;;;12.90;8.97;;;;;;;;;;5018702;28;20186;-83
2023/12/03 03:38:57;;;;;;;12.90;8.77;;;;;;;;;;5015842;28;20257;-82
2023/12/03 03:41:22;;;;;;;13.80;8.93;;;;;;;;;;5023232;28;20206;-82
2023/12/03 03:43:48;;;;;;;15.20;9.23;;;;;;;;;;5021811;28;20179;-83
2023/12/03 03:46:13;;;;;;;15.13;10.17;;;;;;;;;;5020078;28;20316;-82
2023/12/03 03:48:38;;;;;;;11.13;8.40;;;;;;;;;;5022111;28;20179;-82
2023/12/03 03:51:07;;;;;;;12.73;7.83;;;;;;;;;;5017905;28;20183;-83
2023/12/03 03:53:32;;;;;;;13.27;8.33;;;;;;;;;;5022447;28;20187;-83
2023/12/03 03:55:57;;;;;;;13.87;9.07;;;;;;;;;;5023595;28;21019;-82
2023/12/03 03:58:23;;;;;;;15.00;9.10;;;;;;;;;;5018398;28;20204;-83
2023/12/03 04:00:48;;;;;;;13.40;8.47;;;;;;;;;;5013584;28;20206;-83
2023/12/03 04:03:13;;;;;;;13.53;8.63;;;;;;;;;;5022637;28;20179;-83
2023/12/03 04:05:38;;;;;;;14.07;8.90;;;;;;;;;;5022185;28;20179;-82
2023/12/03 04:08:03;;;;;;;12.47;7.93;;;;;;;;;;5014215;28;20188;-83
2023/12/03 04:10:29;;;;;;;12.30;8.23;;;;;;;;;;5013762;28;20188;-83
2023/12/03 04:12:54;;;;;;;11.93;8.83;;;;;;;;;;5018939;28;20186;-83
2023/12/03 04:15:20;;;;;;;13.23;8.67;;;;;;;;;;5018394;28;20175;-83
2023/12/03 04:17:45;;;;;;;13.43;8.60;;;;;;;;;;5020380;28;20190;-83
2023/12/03 04:20:11;;;;;;;13.10;8.40;;;;;;;;;;5019464;28;20206;-83
2023/12/03 04:22:37;;;;;;;12.33;8.50;;;;;;;;;;5013672;28;20266;-83
2023/12/03 04:25:02;;;;;;;13.93;9.23;;;;;;;;;;5010859;28;20208;-83
2023/12/03 04:27:27;;;;;;;13.60;9.90;;;;;;;;;;5015385;28;20187;-83
2023/12/03 04:29:52;;;;;;;13.10;9.37;;;;;;;;;;5018752;28;20184;-83
2023/12/03 04:32:18;;;;;;;16.20;9.60;;;;;;;;;;5029503;28;20202;-83
2023/12/03 04:34:43;;;;;;;12.27;8.43;;;;;;;;;;5019518;28;20221;-83
2023/12/03 04:37:08;;;;;;;15.27;9.70;;;;;;;;;;5017175;28;20186;-83
2023/12/03 04:39:34;;;;;;;11.50;8.27;;;;;;;;;;5008141;28;20275;-83
2023/12/03 04:42:00;;;;;;;12.77;8.73;;;;;;;;;;5006865;28;20291;-83
2023/12/03 04:44:25;;;;;;;12.37;8.93;;;;;;;;;;5007160;28;20270;-83
2023/12/03 04:46:50;;;;;;;12.17;7.93;;;;;;;;;;5015015;28;20171;-83
2023/12/03 04:49:15;;;;;;;11.33;7.47;;;;;;;;;;5021825;28;20180;-84
2023/12/03 04:51:41;;;;;;;11.33;8.10;;;;;;;;;;5011618;28;20275;-83
2023/12/03 04:54:06;;;;;;;10.70;7.57;;;;;;;;;;5016925;28;20286;-83
2023/12/03 04:56:31;;;;;;;10.57;7.80;;;;;;;;;;5019859;28;20268;-83
2023/12/03 04:58:56;;;;;;;11.40;8.20;;;;;;;;;;5015387;28;20240;-84
2023/12/03 05:01:24;;;;;;;12.20;7.87;;;;;;;;;;5014872;28;20209;-83
2023/12/03 05:03:49;;;;;;;12.93;8.00;;;;;;;;;;5021140;28;20193;-83
2023/12/03 05:06:14;;;;;;;10.83;7.37;;;;;;;;;;5016490;28;20187;-83
2023/12/03 05:08:40;;;;;;;13.43;9.13;;;;;;;;;;5012037;28;20180;-84
2023/12/03 05:11:05;;;;;;;12.10;8.00;;;;;;;;;;5010273;28;20283;-84
2023/12/03 05:13:31;;;;;;;11.40;8.13;;;;;;;;;;5013822;28;20179;-84
2023/12/03 05:15:56;;;;;;;9.77;7.40;;;;;;;;;;5018866;28;20191;-84
2023/12/03 05:18:21;;;;;;;10.70;7.33;;;;;;;;;;5013960;28;20176;-84
2023/12/03 05:20:47;;;;;;;11.73;7.97;;;;;;;;;;5019443;28;20198;-84
2023/12/03 05:23:13;;;;;;;12.87;7.87;;;;;;;;;;5016555;28;20179;-84
2023/12/03 05:25:38;;;;;;;11.97;8.43;;;;;;;;;;5013729;28;20183;-84
2023/12/03 05:28:03;;;;;;;10.80;7.73;;;;;;;;;;5015337;28;20182;-84
2023/12/03 05:30:29;;;;;;;13.03;9.07;;;;;;;;;;5015799;28;20233;-84
2023/12/03 05:32:54;;;;;;;19.80;11.97;;;;;;;;;;5021688;28;20210;-84
2023/12/03 05:35:19;;;;;;;13.23;8.53;;;;;;;;;;5013632;28;20183;-84
2023/12/03 05:37:44;;;;;;;13.17;7.20;;;;;;;;;;5011852;28;20190;-84
2023/12/03 05:40:10;;;;;;;11.33;6.83;;;;;;;;;;5017661;28;20238;-84
2023/12/03 05:42:35;;;;;;;13.70;8.70;;;;;;;;;;5013649;28;20234;-84
2023/12/03 05:45:00;;;;;;;15.23;8.57;;;;;;;;;;5019482;28;20237;-85
2023/12/03 05:47:25;;;;;;;12.20;8.50;;;;;;;;;;5016262;28;20270;-85
2023/12/03 05:49:51;;;;;;;12.27;7.83;;;;;;;;;;5024046;28;20197;-85
2023/12/03 05:52:16;;;;;;;13.27;8.57;;;;;;;;;;5013349;28;20194;-84
2023/12/03 05:54:42;;;;;;;10.53;7.77;;;;;;;;;;5014611;28;20179;-85
2023/12/03 05:57:07;;;;;;;11.30;7.70;;;;;;;;;;5019074;28;20276;-85
2023/12/03 05:59:33;;;;;;;12.07;8.80;;;;;;;;;;5017853;28;20213;-85
2023/12/03 06:01:58;;;;;;;12.37;8.60;;;;;;;;;;5015529;28;20298;-85
2023/12/03 06:04:23;;;;;;;12.37;8.27;;;;;;;;;;5017378;28;20180;-85
2023/12/03 06:06:48;;;;;;;13.03;8.83;;;;;;;;;;5026660;28;20174;-85
2023/12/03 06:09:14;;;;;;;13.07;8.30;;;;;;;;;;5016511;28;20183;-85
2023/12/03 06:11:39;;;;;;;13.10;7.77;;;;;;;;;;5021564;28;20178;-85
2023/12/03 06:14:04;;;;;;;15.37;9.50;;;;;;;;;;5017582;28;20205;-85
2023/12/03 06:16:30;;;;;;;13.13;8.73;;;;;;;;;;5019001;28;20175;-85
2023/12/03 06:18:55;;;;;;;10.00;7.57;;;;;;;;;;5013473;28;20183;-86
2023/12/03 06:21:22;;;;;;;12.83;8.97;;;;;;;;;;5013692;28;20196;-86
2023/12/03 06:23:47;;;;;;;15.53;9.50;;;;;;;;;;5020302;28;20220;-85
2023/12/03 06:26:12;;;;;;;12.53;8.30;;;;;;;;;;5020181;28;20186;-86
2023/12/03 06:28:37;;;;;;;13.27;8.93;;;;;;;;;;5016448;28;20168;-85
2023/12/03 06:31:06;;;;;;;12.83;8.73;;;;;;;;;;5012136;28;20209;-86
2023/12/03 06:33:31;;;;;;;15.17;9.90;;;;;;;;;;5016493;28;20199;-86
2023/12/03 06:35:57;;;;;;;14.97;8.97;;;;;;;;;;5020673;28;20193;-85
2023/12/03 06:38:22;;;;;;;13.93;8.43;;;;;;;;;;5019596;28;20186;-86
2023/12/03 06:40:47;;;;;;;12.33;8.63;;;;;;;;;;5008754;28;20204;-86
2023/12/03 06:43:12;;;;;;;13.60;8.80;;;;;;;;;;5011577;28;20182;-86
2023/12/03 06:45:37;;;;;;;12.90;8.47;;;;;;;;;;5024873;28;20201;-86
2023/12/03 06:48:03;;;;;;;13.23;8.60;;;;;;;;;;5020349;28;20214;-86
2023/12/03 06:50:28;;;;;;;12.13;8.93;;;;;;;;;;5030484;28;20178;-86
2023/12/03 06:52:53;;;;;;;11.13;7.80;;;;;;;;;;5020604;28;20172;-86
2023/12/03 06:55:19;;;;;;;11.27;7.90;;;;;;;;;;5022521;28;20472;-86
2023/12/03 06:57:44;;;;;;;9.47;6.87;;;;;;;;;;5024462;28;20226;-86
2023/12/03 07:00:09;;;;;;;11.57;7.00;;;;;;;;;;5020656;28;20203;-86
2023/12/03 07:02:35;;;;;;;26.40;13.00;;;;;;;;;;5018922;28;20183;-86
2023/12/03 07:05:00;;;;;;;19.63;11.77;;;;;;;;;;5017246;28;20185;-86
2023/12/03 07:07:25;;;;;;;12.17;7.50;;;;;;;;;;5028856;28;20185;-86
2023/12/03 07:09:50;;;;;;;13.97;8.53;;;;;;;;;;5018730;28;20172;-86
2023/12/03 07:12:16;;;;;;;12.87;7.90;;;;;;;;;;5021270;28;20210;-86
2023/12/03 07:14:41;;;;;;;11.73;8.47;;;;;;;;;;5021681;28;20266;-86
2023/12/03 07:17:06;;;;;;;11.70;7.70;;;;;;;;;;5018409;28;20184;-86
2023/12/03 07:19:32;;;;;;;12.50;8.23;;;;;;;;;;5020274;28;20171;-86
2023/12/03 07:21:57;;;;;;;14.43;9.03;;;;;;;;;;5019682;28;20195;-85
2023/12/03 07:24:22;;;;;;;10.80;7.87;;;;;;;;;;5025842;28;20269;-86
2023/12/03 07:26:47;;;;;;;12.33;7.57;;;;;;;;;;5026124;28;20533;-86
2023/12/03 07:29:12;;;;;;;10.33;7.73;;;;;;;;;;5017711;28;20186;-86
2023/12/03 07:31:38;;;;;;;11.37;7.60;;;;;;;;;;5026417;28;20241;-87
2023/12/03 07:34:03;;;;;;;12.90;7.67;;;;;;;;;;5026727;28;20201;-86
2023/12/03 07:36:29;;;;;;;10.57;7.43;;;;;;;;;;5016207;28;20179;-86
2023/12/03 07:38:54;;;;;;;9.13;6.87;;;;;;;;;;5024760;28;20182;-86
2023/12/03 07:41:19;;;;;;;10.53;7.80;;;;;;;;;;5025203;28;20191;-86
2023/12/03 07:43:44;;;;;;;9.20;6.83;;;;;;;;;;5018514;28;20245;-86
2023/12/03 07:46:15;;;;;;;10.83;7.30;;;;;;;;;;5018560;28;21302;-86
2023/12/03 07:48:40;;;;;;;13.60;7.77;;;;;;;;;;5022301;28;20174;-86
2023/12/03 07:51:09;;;;;;;13.53;7.03;;;;;;;;;;5019156;28;20276;-86
2023/12/03 07:53:35;;;;;;;11.73;7.03;;;;;;;;;;5018729;28;20268;-86
2023/12/03 07:56:00;;;;;;;11.97;7.10;;;;;;;;;;5022867;28;20259;-86
2023/12/03 07:58:25;;;;;;;9.53;6.90;;;;;;;;;;5021176;28;20210;-86
2023/12/03 08:00:50;;;;;;;9.20;7.17;;;;;;;;;;5022323;28;20214;-87
2023/12/03 08:03:15;;;;;;;9.10;6.80;;;;;;;;;;5023449;28;20179;-87
2023/12/03 08:05:41;;;;;;;14.97;9.67;;;;;;;;;;5014198;28;20179;-87
2023/12/03 08:08:06;;;;;;;11.73;7.60;;;;;;;;;;5022990;28;20178;-86
2023/12/03 08:10:31;;;;;;;12.03;8.27;;;;;;;;;;5019109;28;20214;-87
2023/12/03 08:12:56;;;;;;;11.97;8.30;;;;;;;;;;5014699;28;20254;-86
2023/12/03 08:15:21;;;;;;;11.47;7.57;;;;;;;;;;5014625;28;20180;-87
2023/12/03 08:17:47;;;;;;;11.80;8.53;;;;;;;;;;5011985;28;20183;-87
2023/12/03 08:20:12;;;;;;;11.53;7.70;;;;;;;;;;5012458;28;20199;-87
2023/12/03 08:22:38;;;;;;;11.57;7.50;;;;;;;;;;5015645;28;20174;-86
2023/12/03 08:25:03;;;;;;;11.70;8.27;;;;;;;;;;5013623;28;20183;-86
2023/12/03 08:27:28;;;;;;;11.93;7.53;;;;;;;;;;5017939;28;20176;-86
2023/12/03 08:29:53;;;;;;;10.77;7.50;;;;;;;;;;5010619;28;20212;-86
2023/12/03 08:32:20;;;;;;;12.00;7.40;;;;;;;;;;5017760;28;20253;-86
2023/12/03 08:34:46;;;;;;;10.23;6.97;;;;;;;;;;5019128;28;20252;-86
2023/12/03 08:37:11;;;;;;;13.33;8.50;;;;;;;;;;5020716;28;20170;-86
2023/12/03 08:39:36;;;;;;;11.50;7.83;;;;;;;;;;5018783;28;20183;-86
2023/12/03 08:42:02;;;;;;;13.03;8.33;;;;;;;;;;5020349;28;20244;-86
2023/12/03 08:44:28;;;;;;;11.17;7.87;;;;;;;;;;5013005;28;20253;-86
2023/12/03 08:46:53;;;;;;;9.57;6.50;;;;;;;;;;5025647;28;20483;-86
2023/12/03 08:49:18;;;;;;;10.67;7.50;;;;;;;;;;5020155;28;20211;-86
2023/12/03 08:51:44;;;;;;;11.83;8.33;;;;;;;;;;5013453;28;20271;-87
2023/12/03 08:54:09;;;;;;;8.53;6.40;;;;;;;;;;5022296;28;20182;-86
2023/12/03 08:56:34;;;;;;;10.23;7.10;;;;;;;;;;5015154;28;20226;-87
2023/12/03 08:59:00;;;;;;;9.73;6.40;;;;;;;;;;5019881;28;20258;-85
2023/12/03 09:01:25;;;;;;;10.13;6.30;;;;;;;;;;5025870;28;20199;-87
2023/12/03 09:03:50;;;;;;;11.77;6.90;;;;;;;;;;5025539;28;20178;-87
2023/12/03 09:06:16;;;;;;;11.20;7.47;;;;;;;;;;5020595;28;20182;-87
2023/12/03 09:08:41;;;;;;;12.77;7.80;;;;;;;;;;5024277;28;20175;-89
2023/12/03 09:11:07;;;;;;;52.40;21.53;;;;;;;;;;5020745;28;20269;-89
2023/12/03 09:13:32;;;;;;;9.70;6.47;;;;;;;;;;5024081;28;20206;-86
2023/12/03 09:15:57;;;;;;;10.83;7.30;;;;;;;;;;5024302;28;20189;-86
2023/12/03 09:18:22;;;;;;;19.50;11.07;;;;;;;;;;5022653;28;20213;-86
2023/12/03 09:20:48;;;;;;;16.17;10.00;;;;;;;;;;5022242;28;20221;-85
2023/12/03 09:23:13;;;;;;;16.07;12.27;;;;;;;;;;5022933;28;20195;-85
2023/12/03 09:25:38;;;;;;;14.97;9.50;;;;;;;;;;5020243;28;20270;-84
2023/12/03 09:28:04;;;;;;;11.43;8.23;;;;;;;;;;5021913;28;20178;-84
2023/12/03 09:30:29;;;;;;;12.70;8.93;;;;;;;;;;5018486;28;20182;-84
2023/12/03 09:32:54;;;;;;;15.13;9.67;;;;;;;;;;5023337;28;20206;-84
2023/12/03 09:35:20;;;;;;;14.43;9.13;;;;;;;;;;5021362;28;20215;-84
2023/12/03 09:37:46;;;;;;;14.17;9.17;;;;;;;;;;5018800;28;20182;-84
2023/12/03 09:40:12;;;;;;;10.90;7.40;;;;;;;;;;5014209;28;20369;-84
2023/12/03 09:42:39;;;;;;;16.37;9.47;;;;;;;;;;5014189;28;20183;-84
2023/12/03 09:45:06;;;;;;;13.53;8.93;;;;;;;;;;5021553;28;20193;-83
2023/12/03 09:47:33;;;;;;;14.70;9.13;;;;;;;;;;5022415;28;20168;-84
2023/12/03 09:50:00;;;;;;;14.07;8.43;;;;;;;;;;5016431;28;20180;-83
2023/12/03 09:52:26;;;;;;;12.17;8.60;;;;;;;;;;5016799;28;20182;-84
2023/12/03 09:54:51;;;;;;;11.93;8.87;;;;;;;;;;5017425;28;20174;-84
2023/12/03 09:57:17;;;;;;;13.50;9.43;;;;;;;;;;5034391;28;20278;-84
2023/12/03 09:59:48;;;;;;;13.57;9.10;;;;;;;;;;5018253;28;20183;-84
2023/12/03 10:02:14;;;;;;;14.10;9.67;;;;;;;;;;5019273;28;20211;-86
2023/12/03 10:04:39;;;;;;;11.50;7.90;;;;;;;;;;5028034;28;20273;-84
2023/12/03 10:07:06;;;;;;;13.93;9.57;;;;;;;;;;5021511;28;20179;-84
2023/12/03 10:09:32;;;;;;;10.57;7.33;;;;;;;;;;5020899;28;20171;-84
2023/12/03 10:12:00;;;;;;;13.07;8.90;;;;;;;;;;5018098;28;20195;-84
2023/12/03 10:14:26;;;;;;;14.23;8.63;;;;;;;;;;5023340;28;20270;-84
2023/12/03 10:16:51;;;;;;;11.17;7.80;;;;;;;;;;5019172;28;20187;-84
2023/12/03 10:19:23;;;;;;;13.23;8.63;;;;;;;;;;5017323;28;20184;-84
2023/12/03 10:21:49;;;;;;;13.43;9.70;;;;;;;;;;5027283;28;20301;-84
2023/12/03 10:24:14;;;;;;;14.93;9.40;;;;;;;;;;5023573;28;20270;-84
2023/12/03 10:26:48;;;;;;;14.43;9.67;;;;;;;;;;5022681;28;20659;-84
2023/12/03 10:29:15;;;;;;;12.80;9.10;;;;;;;;;;5024764;28;20173;-84
2023/12/03 10:31:41;;;;;;;12.40;8.13;;;;;;;;;;5017687;28;20199;-84
2023/12/03 10:34:07;;;;;;;13.13;8.90;;;;;;;;;;5024942;28;20175;-85
2023/12/03 10:36:32;;;;;;;12.53;9.10;;;;;;;;;;5018353;28;20181;-85
2023/12/03 10:38:57;;;;;;;14.33;9.50;;;;;;;;;;5027237;28;20228;-84
2023/12/03 10:41:23;;;;;;;13.33;8.47;;;;;;;;;;5020974;28;20374;-84
2023/12/03 10:43:50;;;;;;;11.93;8.37;;;;;;;;;;5024271;28;20185;-84
2023/12/03 10:46:16;;;;;;;11.57;8.03;;;;;;;;;;5040581;28;20270;-84
2023/12/03 10:48:42;;;;;;;12.67;8.90;;;;;;;;;;5018409;28;20273;-84
2023/12/03 10:51:08;;;;;;;11.37;8.17;;;;;;;;;;5021020;28;20186;-84
2023/12/03 10:53:34;;;;;;;12.10;8.23;;;;;;;;;;5022536;28;20186;-85
2023/12/03 10:56:00;;;;;;;13.23;9.60;;;;;;;;;;5029685;28;20190;-84
2023/12/03 10:58:25;;;;;;;13.87;9.07;;;;;;;;;;5018846;28;20258;-84
2023/12/03 11:00:58;;;;;;;15.23;9.77;;;;;;;;;;5021362;28;20290;-84
2023/12/03 11:03:28;;;;;;;12.93;9.27;;;;;;;;;;5018097;28;20234;-84
2023/12/03 11:05:54;;;;;;;14.27;7.67;;;;;;;;;;5018914;28;20199;-84
2023/12/03 11:08:21;;;;;;;15.60;9.87;;;;;;;;;;5024200;28;20183;-84
2023/12/03 11:10:46;;;;;;;13.83;9.33;;;;;;;;;;5023310;28;20286;-85
2023/12/03 11:13:12;;;;;;;14.87;9.63;;;;;;;;;;5016639;28;20455;-85
2023/12/03 11:15:37;;;;;;;14.80;10.80;;;;;;;;;;5018874;28;20233;-84
2023/12/03 11:18:03;;;;;;;15.17;10.27;;;;;;;;;;5018316;28;20218;-85
2023/12/03 11:20:34;;;;;;;15.50;10.70;;;;;;;;;;5019869;28;20250;-84
2023/12/03 11:23:30;;;;;;;14.37;10.07;;;;;;;;;;5024088;28;20181;-85
2023/12/03 11:26:10;;;;;;;18.17;11.87;;;;;;;;;;5010169;28;20175;-84
2023/12/03 11:28:35;;;;;;;10.63;7.53;;;;;;;;;;5021819;28;20183;-85
2023/12/03 11:31:00;;;;;;;13.57;9.63;;;;;;;;;;5016908;28;20183;-85
2023/12/03 11:33:27;;;;;;;16.83;11.70;;;;;;;;;;5020595;28;20357;-84
2023/12/03 11:35:52;;;;;;;15.07;9.83;;;;;;;;;;5027370;28;20178;-84
2023/12/03 11:38:21;;;;;;;14.77;9.60;;;;;;;;;;5016143;28;20174;-85
2023/12/03 11:40:47;;;;;;;16.13;10.67;;;;;;;;;;5018621;28;20253;-85
2023/12/03 11:43:30;;;;;;;15.77;10.43;;;;;;;;;;5022926;28;20182;-86
2023/12/03 11:45:56;;;;;;;19.07;10.17;;;;;;;;;;5018556;28;20186;-85
2023/12/03 11:48:29;;;;;;;20.93;14.07;;;;;;;;;;5013678;28;20176;-85
2023/12/03 11:50:56;;;;;;;22.27;13.10;;;;;;;;;;5026685;28;20199;-85
2023/12/03 11:53:33;;;;;;;23.83;15.60;;;;;;;;;;5021274;28;20270;-84
2023/12/03 11:55:59;;;;;;;25.43;14.87;;;;;;;;;;5017030;28;20186;-85
2023/12/03 11:58:25;;;;;;;20.00;13.17;;;;;;;;;;5016928;28;20198;-84
2023/12/03 12:00:51;;;;;;;24.33;14.67;;;;;;;;;;5020074;28;20206;-85
2023/12/03 12:03:16;;;;;;;26.13;15.00;;;;;;;;;;5022142;28;20258;-84
2023/12/03 12:05:42;;;;;;;18.13;10.03;;;;;;;;;;5022160;28;20215;-84
2023/12/03 12:08:08;;;;;;;21.37;14.37;;;;;;;;;;5024547;28;20182;-84
2023/12/03 12:10:33;;;;;;;20.23;12.57;;;;;;;;;;5017525;28;20436;-85
2023/12/03 12:12:59;;;;;;;27.73;16.43;;;;;;;;;;5020064;28;20214;-84
2023/12/03 12:15:25;;;;;;;22.57;14.13;;;;;;;;;;5017751;28;20180;-84
2023/12/03 12:17:50;;;;;;;22.90;15.63;;;;;;;;;;5017694;28;20238;-84
2023/12/03 12:20:28;;;;;;;25.50;15.87;;;;;;;;;;5013599;28;20254;-85
2023/12/03 12:22:54;;;;;;;23.10;14.70;;;;;;;;;;5016194;28;20199;-84
2023/12/03 12:25:20;;;;;;;25.47;15.90;;;;;;;;;;5018572;28;20210;-84
2023/12/03 12:27:47;;;;;;;24.47;16.67;;;;;;;;;;5024867;28;20179;-84
2023/12/03 12:30:13;;;;;;;21.60;13.20;;;;;;;;;;5012457;28;20172;-84
2023/12/03 12:32:38;;;;;;;18.20;13.43;;;;;;;;;;5018397;28;20195;-85
2023/12/03 12:35:04;;;;;;;19.17;13.63;;;;;;;;;;5018403;28;20186;-84
2023/12/03 12:37:29;;;;;;;19.27;13.07;;;;;;;;;;5021037;28;20271;-85
2023/12/03 12:40:04;;;;;;;17.60;12.17;;;;;;;;;;5013767;28;20270;-85
2023/12/03 12:42:29;;;;;;;39.30;21.83;;;;;;;;;;5018713;28;20171;-85
2023/12/03 12:44:55;;;;;;;35.97;21.20;;;;;;;;;;5023130;28;20190;-85
2023/12/03 12:47:20;;;;;;;62.50;32.43;;;;;;;;;;5012526;28;20506;-84
2023/12/03 12:49:53;;;;;;;20.97;15.70;;;;;;;;;;5021713;28;20180;-85
2023/12/03 12:52:18;;;;;;;19.83;14.20;;;;;;;;;;5016081;28;20171;-84
2023/12/03 12:54:48;;;;;;;23.73;14.83;;;;;;;;;;5013797;28;20183;-85
2023/12/03 12:57:13;;;;;;;18.63;12.80;;;;;;;;;;5020483;28;20281;-85
2023/12/03 12:59:39;;;;;;;17.47;12.23;;;;;;;;;;5016474;28;20321;-85
2023/12/03 13:02:04;;;;;;;17.17;13.07;;;;;;;;;;5021774;28;20203;-85
2023/12/03 13:04:29;;;;;;;20.60;14.80;;;;;;;;;;5025205;28;20186;-85
2023/12/03 13:06:55;;;;;;;18.27;12.63;;;;;;;;;;5017229;28;20195;-84
2023/12/03 13:09:20;;;;;;;18.87;13.47;;;;;;;;;;5022276;28;20175;-86
2023/12/03 13:11:45;;;;;;;19.93;13.90;;;;;;;;;;5017417;28;20181;-85
2023/12/03 13:14:10;;;;;;;18.77;12.70;;;;;;;;;;5020693;28;20180;-85
2023/12/03 13:16:36;;;;;;;20.40;14.17;;;;;;;;;;5022691;28;20200;-84
2023/12/03 13:19:01;;;;;;;20.13;12.73;;;;;;;;;;5012249;28;20180;-85
2023/12/03 13:21:26;;;;;;;20.93;14.43;;;;;;;;;;5013389;28;20196;-84
2023/12/03 13:23:51;;;;;;;21.17;12.70;;;;;;;;;;5017007;28;20183;-85
2023/12/03 13:26:17;;;;;;;16.53;11.97;;;;;;;;;;5019085;28;20179;-85
2023/12/03 13:28:43;;;;;;;18.03;13.03;;;;;;;;;;5015153;28;20181;-85
2023/12/03 13:31:08;;;;;;;17.83;13.33;;;;;;;;;;5015087;28;20202;-84
2023/12/03 13:33:33;;;;;;;16.57;11.50;;;;;;;;;;5023483;28;20189;-85
2023/12/03 13:35:58;;;;;;;17.10;11.57;;;;;;;;;;5018628;28;20191;-84
2023/12/03 13:38:24;;;;;;;19.23;14.67;;;;;;;;;;5011899;28;20239;-85
2023/12/03 13:40:49;;;;;;;17.93;11.33;;;;;;;;;;5018493;28;20255;-85
2023/12/03 13:43:14;;;;;;;17.40;12.97;;;;;;;;;;5015657;28;20266;-84
2023/12/03 13:45:39;;;;;;;17.33;11.40;;;;;;;;;;5018115;28;20213;-85
2023/12/03 13:48:05;;;;;;;17.00;11.50;;;;;;;;;;5014322;28;20205;-83
2023/12/03 13:50:30;;;;;;;17.57;11.37;;;;;;;;;;5016681;28;20191;-85
2023/12/03 13:52:55;;;;;;;15.97;11.40;;;;;;;;;;5016833;28;20183;-84
2023/12/03 13:55:21;;;;;;;14.83;11.80;;;;;;;;;;5020510;28;20184;-85
2023/12/03 13:57:46;;;;;;;14.97;10.73;;;;;;;;;;5018723;28;20463;-85
2023/12/03 14:00:11;;;;;;;15.10;10.63;;;;;;;;;;5014562;28;20223;-85
2023/12/03 14:02:36;;;;;;;14.40;10.60;;;;;;;;;;5014436;28;20188;-85
2023/12/03 14:05:02;;;;;;;14.53;11.03;;;;;;;;;;5029915;28;20231;-84
2023/12/03 14:07:27;;;;;;;13.13;10.50;;;;;;;;;;5020048;28;20201;-84
2023/12/03 14:09:53;;;;;;;15.43;11.07;;;;;;;;;;5020857;28;20195;-85
2023/12/03 14:12:18;;;;;;;13.47;10.77;;;;;;;;;;5022015;28;20188;-84
2023/12/03 14:14:43;;;;;;;15.83;11.23;;;;;;;;;;5017433;28;20183;-85
2023/12/03 14:17:09;;;;;;;18.40;12.83;;;;;;;;;;5022128;28;20180;-85